sensor_id;sensor_type;location;lat;lon;timestamp;P1;durP1;ratioP1;P2;durP2;ratioP2
42614;SDS011;28754;47.700;7.924;2023-02-01T00:02:10;28.88;;;9.20;;
42614;SDS011;28754;47.700;7.924;2023-02-01T00:04:57;71.07;;;11.13;;
42614;SDS011;28754;47.700;7.924;2023-02-01T00:07:44;150.75;;;19.95;;
42614;SDS011;28754;47.700;7.924;2023-02-01T00:10:34;77.85;;;12.48;;
42614;SDS011;28754;47.700;7.924;2023-02-01T00:13:21;252.98;;;29.73;;
42614;SDS011;28754;47.700;7.924;2023-02-01T00:16:09;73.13;;;13.00;;
42614;SDS011;28754;47.700;7.924;2023-02-01T00:19:04;28.75;;;8.90;;
42614;SDS011;28754;47.700;7.924;2023-02-01T00:22:01;34.70;;;9.15;;
42614;SDS011;28754;47.700;7.924;2023-02-01T00:24:47;15.63;;;7.68;;
42614;SDS011;28754;47.700;7.924;2023-02-01T00:27:34;9.10;;;6.53;;
42614;SDS011;28754;47.700;7.924;2023-02-01T00:30:21;41.78;;;10.32;;
42614;SDS011;28754;47.700;7.924;2023-02-01T00:33:07;49.03;;;10.10;;
42614;SDS011;28754;47.700;7.924;2023-02-01T00:36:01;36.03;;;10.05;;
42614;SDS011;28754;47.700;7.924;2023-02-01T00:38:51;36.17;;;10.00;;
42614;SDS011;28754;47.700;7.924;2023-02-01T00:41:38;17.27;;;7.32;;
42614;SDS011;28754;47.700;7.924;2023-02-01T00:44:26;147.85;;;19.33;;
42614;SDS011;28754;47.700;7.924;2023-02-01T00:47:13;54.15;;;11.43;;
42614;SDS011;28754;47.700;7.924;2023-02-01T00:49:59;34.03;;;9.40;;
42614;SDS011;28754;47.700;7.924;2023-02-01T00:52:47;79.13;;;13.93;;
42614;SDS011;28754;47.700;7.924;2023-02-01T00:55:34;33.85;;;9.30;;
42614;SDS011;28754;47.700;7.924;2023-02-01T00:58:20;111.25;;;15.88;;
42614;SDS011;28754;47.700;7.924;2023-02-01T01:01:13;11.50;;;7.95;;
42614;SDS011;28754;47.700;7.924;2023-02-01T01:06:51;36.20;;;10.43;;
42614;SDS011;28754;47.700;7.924;2023-02-01T01:09:38;12.95;;;6.47;;
42614;SDS011;28754;47.700;7.924;2023-02-01T01:12:24;39.97;;;10.88;;
42614;SDS011;28754;47.700;7.924;2023-02-01T01:15:11;59.92;;;10.48;;
42614;SDS011;28754;47.700;7.924;2023-02-01T01:17:58;16.98;;;7.90;;
42614;SDS011;28754;47.700;7.924;2023-02-01T01:20:47;70.00;;;13.88;;
42614;SDS011;28754;47.700;7.924;2023-02-01T01:23:34;60.67;;;11.68;;
42614;SDS011;28754;47.700;7.924;2023-02-01T01:26:23;57.78;;;11.77;;
42614;SDS011;28754;47.700;7.924;2023-02-01T01:29:12;82.38;;;12.57;;
42614;SDS011;28754;47.700;7.924;2023-02-01T01:31:59;121.00;;;18.02;;
42614;SDS011;28754;47.700;7.924;2023-02-01T01:34:46;102.35;;;16.80;;
42614;SDS011;28754;47.700;7.924;2023-02-01T01:37:33;138.80;;;22.00;;
42614;SDS011;28754;47.700;7.924;2023-02-01T01:40:21;72.32;;;12.80;;
42614;SDS011;28754;47.700;7.924;2023-02-01T01:43:12;113.97;;;17.10;;
42614;SDS011;28754;47.700;7.924;2023-02-01T01:46:05;154.90;;;20.75;;
42614;SDS011;28754;47.700;7.924;2023-02-01T01:49:36;22.90;;;8.10;;
42614;SDS011;28754;47.700;7.924;2023-02-01T01:52:09;75.57;;;13.68;;
42614;SDS011;28754;47.700;7.924;2023-02-01T01:54:57;39.22;;;9.65;;
42614;SDS011;28754;47.700;7.924;2023-02-01T01:57:54;160.43;;;21.48;;
42614;SDS011;28754;47.700;7.924;2023-02-01T02:00:54;277.83;;;32.97;;
42614;SDS011;28754;47.700;7.924;2023-02-01T02:03:44;123.47;;;17.80;;
42614;SDS011;28754;47.700;7.924;2023-02-01T02:06:54;371.25;;;47.72;;
42614;SDS011;28754;47.700;7.924;2023-02-01T02:09:48;201.70;;;25.60;;
42614;SDS011;28754;47.700;7.924;2023-02-01T02:12:35;430.75;;;52.60;;
42614;SDS011;28754;47.700;7.924;2023-02-01T02:15:26;321.38;;;36.03;;
42614;SDS011;28754;47.700;7.924;2023-02-01T02:18:23;333.60;;;37.47;;
42614;SDS011;28754;47.700;7.924;2023-02-01T02:21:29;437.88;;;48.33;;
42614;SDS011;28754;47.700;7.924;2023-02-01T02:25:18;807.50;;;104.63;;
42614;SDS011;28754;47.700;7.924;2023-02-01T02:32:03;849.20;;;105.55;;
42614;SDS011;28754;47.700;7.924;2023-02-01T02:35:42;705.45;;;91.28;;
42614;SDS011;28754;47.700;7.924;2023-02-01T02:52:02;701.40;;;80.10;;
42614;SDS011;28754;47.700;7.924;2023-02-01T02:55:17;459.85;;;53.75;;
42614;SDS011;28754;47.700;7.924;2023-02-01T02:58:06;693.05;;;82.13;;
42614;SDS011;28754;47.700;7.924;2023-02-01T03:01:14;958.47;;;114.90;;
42614;SDS011;28754;47.700;7.924;2023-02-01T03:04:20;966.03;;;113.75;;
42614;SDS011;28754;47.700;7.924;2023-02-01T03:07:13;679.20;;;78.80;;
42614;SDS011;28754;47.700;7.924;2023-02-01T03:13:53;729.20;;;77.20;;
42614;SDS011;28754;47.700;7.924;2023-02-01T03:16:54;702.22;;;89.70;;
42614;SDS011;28754;47.700;7.924;2023-02-01T03:19:53;1034.97;;;117.82;;
42614;SDS011;28754;47.700;7.924;2023-02-01T03:22:46;834.40;;;94.15;;
42614;SDS011;28754;47.700;7.924;2023-02-01T03:25:38;816.17;;;99.70;;
42614;SDS011;28754;47.700;7.924;2023-02-01T03:28:27;528.97;;;57.22;;
42614;SDS011;28754;47.700;7.924;2023-02-01T03:31:18;1210.72;;;142.52;;
42614;SDS011;28754;47.700;7.924;2023-02-01T03:34:05;856.78;;;98.05;;
42614;SDS011;28754;47.700;7.924;2023-02-01T03:36:58;679.08;;;69.68;;
42614;SDS011;28754;47.700;7.924;2023-02-01T03:39:57;941.65;;;116.47;;
42614;SDS011;28754;47.700;7.924;2023-02-01T03:42:52;1139.10;;;138.98;;
42614;SDS011;28754;47.700;7.924;2023-02-01T03:45:43;799.38;;;91.13;;
42614;SDS011;28754;47.700;7.924;2023-02-01T03:48:38;733.78;;;83.70;;
42614;SDS011;28754;47.700;7.924;2023-02-01T03:51:26;1010.28;;;109.05;;
42614;SDS011;28754;47.700;7.924;2023-02-01T03:54:15;746.20;;;84.20;;
42614;SDS011;28754;47.700;7.924;2023-02-01T03:57:05;866.45;;;108.15;;
42614;SDS011;28754;47.700;7.924;2023-02-01T04:00:06;953.53;;;115.47;;
42614;SDS011;28754;47.700;7.924;2023-02-01T04:03:05;816.60;;;96.38;;
42614;SDS011;28754;47.700;7.924;2023-02-01T04:05:53;1147.70;;;133.63;;
42614;SDS011;28754;47.700;7.924;2023-02-01T04:08:44;818.70;;;98.35;;
42614;SDS011;28754;47.700;7.924;2023-02-01T04:11:31;968.55;;;109.25;;
42614;SDS011;28754;47.700;7.924;2023-02-01T04:14:18;677.42;;;77.20;;
42614;SDS011;28754;47.700;7.924;2023-02-01T04:17:05;946.75;;;109.00;;
42614;SDS011;28754;47.700;7.924;2023-02-01T04:19:51;1172.65;;;135.77;;
42614;SDS011;28754;47.700;7.924;2023-02-01T04:22:38;991.10;;;118.45;;
42614;SDS011;28754;47.700;7.924;2023-02-01T04:25:25;818.47;;;97.60;;
42614;SDS011;28754;47.700;7.924;2023-02-01T04:28:12;991.88;;;116.82;;
42614;SDS011;28754;47.700;7.924;2023-02-01T04:30:59;917.80;;;101.70;;
42614;SDS011;28754;47.700;7.924;2023-02-01T04:33:45;740.72;;;86.38;;
42614;SDS011;28754;47.700;7.924;2023-02-01T04:36:32;806.75;;;88.32;;
42614;SDS011;28754;47.700;7.924;2023-02-01T04:39:19;967.53;;;120.55;;
42614;SDS011;28754;47.700;7.924;2023-02-01T04:42:05;791.78;;;89.35;;
42614;SDS011;28754;47.700;7.924;2023-02-01T04:44:52;760.72;;;82.53;;
42614;SDS011;28754;47.700;7.924;2023-02-01T04:47:39;1141.82;;;136.27;;
42614;SDS011;28754;47.700;7.924;2023-02-01T04:50:25;1040.60;;;125.72;;
42614;SDS011;28754;47.700;7.924;2023-02-01T04:53:13;613.40;;;72.40;;
42614;SDS011;28754;47.700;7.924;2023-02-01T04:56:01;711.45;;;79.70;;
42614;SDS011;28754;47.700;7.924;2023-02-01T04:58:48;660.30;;;77.00;;
42614;SDS011;28754;47.700;7.924;2023-02-01T05:01:35;772.50;;;86.25;;
42614;SDS011;28754;47.700;7.924;2023-02-01T05:04:21;712.88;;;77.22;;
42614;SDS011;28754;47.700;7.924;2023-02-01T05:07:08;658.53;;;70.53;;
42614;SDS011;28754;47.700;7.924;2023-02-01T05:09:55;770.60;;;79.63;;
42614;SDS011;28754;47.700;7.924;2023-02-01T05:12:43;784.95;;;81.15;;
42614;SDS011;28754;47.700;7.924;2023-02-01T05:15:49;683.47;;;67.68;;
42614;SDS011;28754;47.700;7.924;2023-02-01T05:18:37;676.40;;;75.43;;
42614;SDS011;28754;47.700;7.924;2023-02-01T05:21:24;695.50;;;74.68;;
42614;SDS011;28754;47.700;7.924;2023-02-01T05:24:11;670.65;;;69.72;;
42614;SDS011;28754;47.700;7.924;2023-02-01T05:27:05;788.25;;;84.20;;
42614;SDS011;28754;47.700;7.924;2023-02-01T05:29:52;683.83;;;67.32;;
42614;SDS011;28754;47.700;7.924;2023-02-01T05:32:39;942.72;;;108.15;;
42614;SDS011;28754;47.700;7.924;2023-02-01T05:35:25;627.97;;;63.53;;
42614;SDS011;28754;47.700;7.924;2023-02-01T05:38:12;848.58;;;97.60;;
42614;SDS011;28754;47.700;7.924;2023-02-01T05:40:59;768.13;;;85.30;;
42614;SDS011;28754;47.700;7.924;2023-02-01T05:43:46;653.35;;;69.13;;
42614;SDS011;28754;47.700;7.924;2023-02-01T05:46:33;1015.40;;;120.07;;
42614;SDS011;28754;47.700;7.924;2023-02-01T05:49:21;754.17;;;92.00;;
42614;SDS011;28754;47.700;7.924;2023-02-01T05:52:08;546.40;;;59.78;;
42614;SDS011;28754;47.700;7.924;2023-02-01T05:54:55;130.43;;;14.57;;
42614;SDS011;28754;47.700;7.924;2023-02-01T05:57:42;432.00;;;45.75;;
42614;SDS011;28754;47.700;7.924;2023-02-01T06:00:28;729.35;;;87.00;;
42614;SDS011;28754;47.700;7.924;2023-02-01T06:03:16;871.22;;;101.90;;
42614;SDS011;28754;47.700;7.924;2023-02-01T06:06:03;1020.13;;;119.28;;
42614;SDS011;28754;47.700;7.924;2023-02-01T06:08:50;801.10;;;84.63;;
42614;SDS011;28754;47.700;7.924;2023-02-01T06:11:37;740.72;;;83.32;;
42614;SDS011;28754;47.700;7.924;2023-02-01T06:14:26;707.65;;;82.50;;
42614;SDS011;28754;47.700;7.924;2023-02-01T06:17:13;649.33;;;67.50;;
42614;SDS011;28754;47.700;7.924;2023-02-01T06:20:00;739.63;;;89.45;;
42614;SDS011;28754;47.700;7.924;2023-02-01T06:22:47;881.92;;;94.95;;
42614;SDS011;28754;47.700;7.924;2023-02-01T06:25:34;819.22;;;87.68;;
42614;SDS011;28754;47.700;7.924;2023-02-01T06:28:20;736.05;;;81.25;;
42614;SDS011;28754;47.700;7.924;2023-02-01T06:31:09;638.83;;;75.60;;
42614;SDS011;28754;47.700;7.924;2023-02-01T06:33:58;625.28;;;64.68;;
42614;SDS011;28754;47.700;7.924;2023-02-01T06:36:45;548.60;;;62.78;;
42614;SDS011;28754;47.700;7.924;2023-02-01T06:39:32;715.78;;;65.78;;
42614;SDS011;28754;47.700;7.924;2023-02-01T06:42:19;782.78;;;92.22;;
42614;SDS011;28754;47.700;7.924;2023-02-01T06:45:06;710.53;;;70.70;;
42614;SDS011;28754;47.700;7.924;2023-02-01T06:47:53;619.47;;;67.15;;
42614;SDS011;28754;47.700;7.924;2023-02-01T06:50:40;694.78;;;75.15;;
42614;SDS011;28754;47.700;7.924;2023-02-01T06:53:27;670.28;;;68.10;;
42614;SDS011;28754;47.700;7.924;2023-02-01T06:56:14;415.83;;;39.03;;
42614;SDS011;28754;47.700;7.924;2023-02-01T06:59:03;792.03;;;85.32;;
42614;SDS011;28754;47.700;7.924;2023-02-01T07:01:50;712.88;;;82.00;;
42614;SDS011;28754;47.700;7.924;2023-02-01T07:04:37;724.70;;;76.88;;
42614;SDS011;28754;47.700;7.924;2023-02-01T07:07:24;924.58;;;93.65;;
42614;SDS011;28754;47.700;7.924;2023-02-01T07:10:11;987.88;;;103.97;;
42614;SDS011;28754;47.700;7.924;2023-02-01T07:12:58;658.75;;;66.70;;
42614;SDS011;28754;47.700;7.924;2023-02-01T07:15:45;838.53;;;84.43;;
42614;SDS011;28754;47.700;7.924;2023-02-01T07:18:33;556.70;;;59.38;;
42614;SDS011;28754;47.700;7.924;2023-02-01T07:21:20;653.80;;;73.32;;
42614;SDS011;28754;47.700;7.924;2023-02-01T07:24:07;820.63;;;81.18;;
42614;SDS011;28754;47.700;7.924;2023-02-01T07:26:54;593.35;;;57.08;;
42614;SDS011;28754;47.700;7.924;2023-02-01T07:29:40;747.15;;;66.55;;
42614;SDS011;28754;47.700;7.924;2023-02-01T07:32:28;614.45;;;53.42;;
42614;SDS011;28754;47.700;7.924;2023-02-01T07:35:15;765.95;;;69.78;;
42614;SDS011;28754;47.700;7.924;2023-02-01T07:38:02;751.80;;;73.35;;
42614;SDS011;28754;47.700;7.924;2023-02-01T07:40:49;771.08;;;66.90;;
42614;SDS011;28754;47.700;7.924;2023-02-01T07:43:36;661.42;;;63.75;;
42614;SDS011;28754;47.700;7.924;2023-02-01T07:46:23;757.03;;;74.20;;
42614;SDS011;28754;47.700;7.924;2023-02-01T07:49:10;1028.43;;;90.38;;
42614;SDS011;28754;47.700;7.924;2023-02-01T07:51:58;745.10;;;67.82;;
42614;SDS011;28754;47.700;7.924;2023-02-01T07:54:45;813.33;;;78.03;;
42614;SDS011;28754;47.700;7.924;2023-02-01T07:57:31;512.92;;;46.03;;
42614;SDS011;28754;47.700;7.924;2023-02-01T08:00:18;835.92;;;69.10;;
42614;SDS011;28754;47.700;7.924;2023-02-01T08:03:24;702.22;;;68.07;;
42614;SDS011;28754;47.700;7.924;2023-02-01T08:06:11;817.35;;;70.57;;
42614;SDS011;28754;47.700;7.924;2023-02-01T08:08:58;749.22;;;65.22;;
42614;SDS011;28754;47.700;7.924;2023-02-01T08:11:45;612.13;;;48.47;;
42614;SDS011;28754;47.700;7.924;2023-02-01T08:14:32;631.67;;;51.10;;
42614;SDS011;28754;47.700;7.924;2023-02-01T08:17:19;561.42;;;52.60;;
42614;SDS011;28754;47.700;7.924;2023-02-01T08:20:06;500.42;;;46.28;;
42614;SDS011;28754;47.700;7.924;2023-02-01T08:22:54;480.50;;;40.25;;
42614;SDS011;28754;47.700;7.924;2023-02-01T08:25:41;527.47;;;40.00;;
42614;SDS011;28754;47.700;7.924;2023-02-01T08:28:28;590.05;;;46.97;;
42614;SDS011;28754;47.700;7.924;2023-02-01T08:31:16;614.75;;;58.35;;
42614;SDS011;28754;47.700;7.924;2023-02-01T08:34:06;580.22;;;52.65;;
42614;SDS011;28754;47.700;7.924;2023-02-01T08:36:55;472.65;;;38.38;;
42614;SDS011;28754;47.700;7.924;2023-02-01T08:39:44;507.60;;;45.50;;
42614;SDS011;28754;47.700;7.924;2023-02-01T08:42:32;515.30;;;49.47;;
42614;SDS011;28754;47.700;7.924;2023-02-01T08:45:37;688.38;;;54.92;;
42614;SDS011;28754;47.700;7.924;2023-02-01T08:48:26;718.13;;;61.95;;
42614;SDS011;28754;47.700;7.924;2023-02-01T08:51:14;921.42;;;78.65;;
42614;SDS011;28754;47.700;7.924;2023-02-01T08:54:03;759.95;;;65.32;;
42614;SDS011;28754;47.700;7.924;2023-02-01T08:56:50;724.05;;;74.07;;
42614;SDS011;28754;47.700;7.924;2023-02-01T08:59:39;568.28;;;48.28;;
42614;SDS011;28754;47.700;7.924;2023-02-01T09:02:26;566.60;;;46.03;;
42614;SDS011;28754;47.700;7.924;2023-02-01T09:05:13;532.53;;;40.20;;
42614;SDS011;28754;47.700;7.924;2023-02-01T09:08:02;784.28;;;72.60;;
42614;SDS011;28754;47.700;7.924;2023-02-01T09:10:49;643.65;;;59.58;;
42614;SDS011;28754;47.700;7.924;2023-02-01T09:13:36;633.42;;;50.40;;
42614;SDS011;28754;47.700;7.924;2023-02-01T09:16:23;685.45;;;59.03;;
42614;SDS011;28754;47.700;7.924;2023-02-01T09:19:10;506.60;;;46.15;;
42614;SDS011;28754;47.700;7.924;2023-02-01T09:21:56;742.75;;;67.25;;
42614;SDS011;28754;47.700;7.924;2023-02-01T09:24:44;436.70;;;34.58;;
42614;SDS011;28754;47.700;7.924;2023-02-01T09:27:31;550.75;;;48.00;;
42614;SDS011;28754;47.700;7.924;2023-02-01T09:30:17;436.75;;;44.28;;
42614;SDS011;28754;47.700;7.924;2023-02-01T09:33:04;375.40;;;33.80;;
42614;SDS011;28754;47.700;7.924;2023-02-01T09:35:55;592.25;;;59.13;;
42614;SDS011;28754;47.700;7.924;2023-02-01T09:38:48;454.85;;;35.95;;
42614;SDS011;28754;47.700;7.924;2023-02-01T09:41:38;758.83;;;79.38;;
42614;SDS011;28754;47.700;7.924;2023-02-01T09:48:20;394.85;;;38.67;;
42614;SDS011;28754;47.700;7.924;2023-02-01T09:51:19;502.15;;;50.28;;
42614;SDS011;28754;47.700;7.924;2023-02-01T09:54:46;530.47;;;47.90;;
42614;SDS011;28754;47.700;7.924;2023-02-01T10:00:39;444.42;;;39.45;;
42614;SDS011;28754;47.700;7.924;2023-02-01T10:03:36;547.30;;;54.58;;
42614;SDS011;28754;47.700;7.924;2023-02-01T10:06:34;469.00;;;44.05;;
42614;SDS011;28754;47.700;7.924;2023-02-01T10:12:52;96.85;;;10.75;;
42614;SDS011;28754;47.700;7.924;2023-02-01T10:22:03;712.92;;;73.80;;
42614;SDS011;28754;47.700;7.924;2023-02-01T10:25:03;519.60;;;53.50;;
42614;SDS011;28754;47.700;7.924;2023-02-01T10:27:59;535.15;;;52.92;;
42614;SDS011;28754;47.700;7.924;2023-02-01T10:30:48;682.67;;;71.70;;
42614;SDS011;28754;47.700;7.924;2023-02-01T10:33:43;515.80;;;53.20;;
42614;SDS011;28754;47.700;7.924;2023-02-01T10:36:36;107.78;;;13.43;;
42614;SDS011;28754;47.700;7.924;2023-02-01T10:39:28;11.77;;;4.30;;
42614;SDS011;28754;47.700;7.924;2023-02-01T10:42:16;15.73;;;4.47;;
42614;SDS011;28754;47.700;7.924;2023-02-01T10:45:13;337.52;;;41.25;;
42614;SDS011;28754;47.700;7.924;2023-02-01T10:48:05;127.03;;;14.13;;
42614;SDS011;28754;47.700;7.924;2023-02-01T10:51:02;13.48;;;4.10;;
42614;SDS011;28754;47.700;7.924;2023-02-01T10:54:08;135.23;;;17.95;;
42614;SDS011;28754;47.700;7.924;2023-02-01T10:57:03;15.90;;;5.18;;
42614;SDS011;28754;47.700;7.924;2023-02-01T11:00:18;9.20;;;5.13;;
42614;SDS011;28754;47.700;7.924;2023-02-01T11:09:24;8.05;;;4.50;;
42614;SDS011;28754;47.700;7.924;2023-02-01T11:12:31;15.55;;;5.25;;
42614;SDS011;28754;47.700;7.924;2023-02-01T11:15:23;14.43;;;4.60;;
42614;SDS011;28754;47.700;7.924;2023-02-01T11:18:18;11.18;;;4.50;;
42614;SDS011;28754;47.700;7.924;2023-02-01T11:21:10;10.23;;;4.25;;
42614;SDS011;28754;47.700;7.924;2023-02-01T11:24:04;8.98;;;4.30;;
42614;SDS011;28754;47.700;7.924;2023-02-01T11:26:56;10.45;;;4.68;;
42614;SDS011;28754;47.700;7.924;2023-02-01T11:29:46;10.38;;;4.38;;
42614;SDS011;28754;47.700;7.924;2023-02-01T11:32:37;16.92;;;3.95;;
42614;SDS011;28754;47.700;7.924;2023-02-01T11:35:26;19.73;;;5.35;;
42614;SDS011;28754;47.700;7.924;2023-02-01T11:38:25;11.65;;;4.35;;
42614;SDS011;28754;47.700;7.924;2023-02-01T11:41:22;12.88;;;4.15;;
42614;SDS011;28754;47.700;7.924;2023-02-01T11:44:22;11.82;;;3.33;;
42614;SDS011;28754;47.700;7.924;2023-02-01T11:47:23;13.85;;;4.28;;
42614;SDS011;28754;47.700;7.924;2023-02-01T11:50:17;12.38;;;3.92;;
42614;SDS011;28754;47.700;7.924;2023-02-01T11:53:20;18.33;;;4.88;;
42614;SDS011;28754;47.700;7.924;2023-02-01T11:56:37;16.17;;;5.25;;
42614;SDS011;28754;47.700;7.924;2023-02-01T12:12:33;11.93;;;5.45;;
42614;SDS011;28754;47.700;7.924;2023-02-01T12:36:16;13.70;;;5.10;;
42614;SDS011;28754;47.700;7.924;2023-02-01T12:42:55;11.80;;;4.57;;
42614;SDS011;28754;47.700;7.924;2023-02-01T12:49:11;12.13;;;4.07;;
42614;SDS011;28754;47.700;7.924;2023-02-01T12:52:30;10.05;;;5.05;;
42614;SDS011;28754;47.700;7.924;2023-02-01T12:55:38;11.35;;;4.20;;
42614;SDS011;28754;47.700;7.924;2023-02-01T13:06:36;13.90;;;3.38;;
42614;SDS011;28754;47.700;7.924;2023-02-01T13:09:43;20.92;;;4.70;;
42614;SDS011;28754;47.700;7.924;2023-02-01T13:12:54;11.82;;;3.80;;
42614;SDS011;28754;47.700;7.924;2023-02-01T13:19:48;10.55;;;4.15;;
42614;SDS011;28754;47.700;7.924;2023-02-01T13:22:41;18.90;;;4.05;;
42614;SDS011;28754;47.700;7.924;2023-02-01T13:25:35;11.23;;;4.03;;
42614;SDS011;28754;47.700;7.924;2023-02-01T13:28:53;12.02;;;4.03;;
42614;SDS011;28754;47.700;7.924;2023-02-01T13:44:15;9.90;;;3.35;;
42614;SDS011;28754;47.700;7.924;2023-02-01T13:50:35;8.95;;;3.63;;
42614;SDS011;28754;47.700;7.924;2023-02-01T13:53:33;18.13;;;4.75;;
42614;SDS011;28754;47.700;7.924;2023-02-01T13:56:23;18.25;;;5.00;;
42614;SDS011;28754;47.700;7.924;2023-02-01T14:02:44;17.40;;;4.80;;
42614;SDS011;28754;47.700;7.924;2023-02-01T14:08:36;12.63;;;4.68;;
42614;SDS011;28754;47.700;7.924;2023-02-01T14:11:35;16.30;;;5.22;;
42614;SDS011;28754;47.700;7.924;2023-02-01T14:20:36;14.25;;;4.45;;
42614;SDS011;28754;47.700;7.924;2023-02-01T14:23:31;8.07;;;3.28;;
42614;SDS011;28754;47.700;7.924;2023-02-01T14:29:38;16.88;;;4.47;;
42614;SDS011;28754;47.700;7.924;2023-02-01T14:32:33;14.30;;;4.22;;
42614;SDS011;28754;47.700;7.924;2023-02-01T14:35:27;23.05;;;5.65;;
42614;SDS011;28754;47.700;7.924;2023-02-01T14:38:14;25.25;;;4.57;;
42614;SDS011;28754;47.700;7.924;2023-02-01T14:41:11;16.20;;;4.65;;
42614;SDS011;28754;47.700;7.924;2023-02-01T14:44:13;16.38;;;4.15;;
42614;SDS011;28754;47.700;7.924;2023-02-01T14:58:52;11.02;;;3.47;;
42614;SDS011;28754;47.700;7.924;2023-02-01T15:01:53;18.38;;;4.53;;
42614;SDS011;28754;47.700;7.924;2023-02-01T15:04:44;25.25;;;4.43;;
42614;SDS011;28754;47.700;7.924;2023-02-01T15:07:31;15.13;;;4.82;;
42614;SDS011;28754;47.700;7.924;2023-02-01T15:10:18;15.25;;;4.55;;
42614;SDS011;28754;47.700;7.924;2023-02-01T15:13:12;16.85;;;4.07;;
42614;SDS011;28754;47.700;7.924;2023-02-01T15:16:11;11.30;;;4.00;;
42614;SDS011;28754;47.700;7.924;2023-02-01T15:19:08;11.32;;;3.42;;
42614;SDS011;28754;47.700;7.924;2023-02-01T15:21:59;13.82;;;4.57;;
42614;SDS011;28754;47.700;7.924;2023-02-01T15:24:56;11.73;;;4.07;;
42614;SDS011;28754;47.700;7.924;2023-02-01T15:27:45;16.90;;;4.32;;
42614;SDS011;28754;47.700;7.924;2023-02-01T15:30:33;11.63;;;3.45;;
42614;SDS011;28754;47.700;7.924;2023-02-01T15:33:21;14.05;;;4.60;;
42614;SDS011;28754;47.700;7.924;2023-02-01T15:36:09;13.07;;;5.13;;
42614;SDS011;28754;47.700;7.924;2023-02-01T15:39:11;17.45;;;4.90;;
42614;SDS011;28754;47.700;7.924;2023-02-01T15:42:10;10.18;;;4.28;;
42614;SDS011;28754;47.700;7.924;2023-02-01T15:45:04;11.68;;;3.90;;
42614;SDS011;28754;47.700;7.924;2023-02-01T15:48:04;14.15;;;3.20;;
42614;SDS011;28754;47.700;7.924;2023-02-01T15:51:06;15.43;;;3.25;;
42614;SDS011;28754;47.700;7.924;2023-02-01T15:54:07;19.65;;;4.60;;
42614;SDS011;28754;47.700;7.924;2023-02-01T15:57:05;17.15;;;4.93;;
42614;SDS011;28754;47.700;7.924;2023-02-01T15:59:52;14.73;;;4.35;;
42614;SDS011;28754;47.700;7.924;2023-02-01T16:02:42;24.80;;;5.75;;
42614;SDS011;28754;47.700;7.924;2023-02-01T16:05:44;15.93;;;4.18;;
42614;SDS011;28754;47.700;7.924;2023-02-01T16:08:31;16.90;;;4.60;;
42614;SDS011;28754;47.700;7.924;2023-02-01T16:11:24;15.20;;;4.63;;
42614;SDS011;28754;47.700;7.924;2023-02-01T16:14:16;12.57;;;4.25;;
42614;SDS011;28754;47.700;7.924;2023-02-01T16:17:03;17.45;;;4.43;;
42614;SDS011;28754;47.700;7.924;2023-02-01T16:19:50;18.33;;;4.80;;
42614;SDS011;28754;47.700;7.924;2023-02-01T16:22:37;20.58;;;4.45;;
42614;SDS011;28754;47.700;7.924;2023-02-01T16:25:23;20.95;;;4.90;;
42614;SDS011;28754;47.700;7.924;2023-02-01T16:28:10;14.30;;;3.65;;
42614;SDS011;28754;47.700;7.924;2023-02-01T16:30:57;11.95;;;4.30;;
42614;SDS011;28754;47.700;7.924;2023-02-01T16:33:45;20.02;;;4.18;;
42614;SDS011;28754;47.700;7.924;2023-02-01T16:36:35;15.88;;;5.00;;
42614;SDS011;28754;47.700;7.924;2023-02-01T16:39:22;11.35;;;4.85;;
42614;SDS011;28754;47.700;7.924;2023-02-01T16:42:10;16.63;;;4.43;;
42614;SDS011;28754;47.700;7.924;2023-02-01T16:44:59;16.92;;;3.70;;
42614;SDS011;28754;47.700;7.924;2023-02-01T16:47:49;21.02;;;4.72;;
42614;SDS011;28754;47.700;7.924;2023-02-01T16:50:40;10.70;;;5.07;;
42614;SDS011;28754;47.700;7.924;2023-02-01T16:53:35;18.90;;;4.15;;
42614;SDS011;28754;47.700;7.924;2023-02-01T16:56:23;24.30;;;4.70;;
42614;SDS011;28754;47.700;7.924;2023-02-01T16:59:16;10.27;;;3.92;;
42614;SDS011;28754;47.700;7.924;2023-02-01T17:02:03;9.48;;;3.90;;
42614;SDS011;28754;47.700;7.924;2023-02-01T17:04:50;14.65;;;4.50;;
42614;SDS011;28754;47.700;7.924;2023-02-01T17:07:36;14.38;;;3.47;;
42614;SDS011;28754;47.700;7.924;2023-02-01T17:10:26;9.60;;;4.20;;
42614;SDS011;28754;47.700;7.924;2023-02-01T17:13:13;13.20;;;4.32;;
42614;SDS011;28754;47.700;7.924;2023-02-01T17:19:10;18.92;;;4.47;;
42614;SDS011;28754;47.700;7.924;2023-02-01T17:22:04;20.60;;;5.07;;
42614;SDS011;28754;47.700;7.924;2023-02-01T17:24:56;18.23;;;3.83;;
42614;SDS011;28754;47.700;7.924;2023-02-01T17:27:43;16.45;;;3.45;;
42614;SDS011;28754;47.700;7.924;2023-02-01T17:30:30;12.00;;;3.78;;
42614;SDS011;28754;47.700;7.924;2023-02-01T17:33:25;15.77;;;3.20;;
42614;SDS011;28754;47.700;7.924;2023-02-01T17:36:16;17.83;;;4.80;;
42614;SDS011;28754;47.700;7.924;2023-02-01T17:39:03;18.30;;;4.13;;
42614;SDS011;28754;47.700;7.924;2023-02-01T17:41:50;13.77;;;3.70;;
42614;SDS011;28754;47.700;7.924;2023-02-01T17:44:37;18.83;;;4.72;;
42614;SDS011;28754;47.700;7.924;2023-02-01T17:47:24;18.60;;;4.10;;
42614;SDS011;28754;47.700;7.924;2023-02-01T17:50:18;13.38;;;4.47;;
42614;SDS011;28754;47.700;7.924;2023-02-01T17:53:05;12.75;;;4.28;;
42614;SDS011;28754;47.700;7.924;2023-02-01T17:55:54;17.55;;;5.18;;
42614;SDS011;28754;47.700;7.924;2023-02-01T17:58:44;14.60;;;3.58;;
42614;SDS011;28754;47.700;7.924;2023-02-01T18:01:32;17.25;;;4.43;;
42614;SDS011;28754;47.700;7.924;2023-02-01T18:04:19;24.48;;;4.35;;
42614;SDS011;28754;47.700;7.924;2023-02-01T18:07:07;17.88;;;4.32;;
42614;SDS011;28754;47.700;7.924;2023-02-01T18:09:54;13.32;;;4.45;;
42614;SDS011;28754;47.700;7.924;2023-02-01T18:12:41;16.98;;;4.38;;
42614;SDS011;28754;47.700;7.924;2023-02-01T18:15:28;17.65;;;4.05;;
42614;SDS011;28754;47.700;7.924;2023-02-01T18:18:16;12.02;;;3.35;;
42614;SDS011;28754;47.700;7.924;2023-02-01T18:21:03;17.40;;;3.72;;
42614;SDS011;28754;47.700;7.924;2023-02-01T18:23:50;15.02;;;5.18;;
42614;SDS011;28754;47.700;7.924;2023-02-01T18:26:37;13.43;;;4.55;;
42614;SDS011;28754;47.700;7.924;2023-02-01T18:29:24;17.23;;;4.32;;
42614;SDS011;28754;47.700;7.924;2023-02-01T18:32:14;13.85;;;3.72;;
42614;SDS011;28754;47.700;7.924;2023-02-01T18:35:01;18.00;;;3.10;;
42614;SDS011;28754;47.700;7.924;2023-02-01T18:37:48;19.77;;;5.43;;
42614;SDS011;28754;47.700;7.924;2023-02-01T18:40:51;26.95;;;5.65;;
42614;SDS011;28754;47.700;7.924;2023-02-01T18:43:52;13.00;;;3.42;;
42614;SDS011;28754;47.700;7.924;2023-02-01T18:47:21;9.15;;;3.22;;
42614;SDS011;28754;47.700;7.924;2023-02-01T18:50:08;14.88;;;3.80;;
42614;SDS011;28754;47.700;7.924;2023-02-01T18:52:56;16.88;;;4.13;;
42614;SDS011;28754;47.700;7.924;2023-02-01T18:55:45;20.95;;;4.50;;
42614;SDS011;28754;47.700;7.924;2023-02-01T18:58:35;11.88;;;3.55;;
42614;SDS011;28754;47.700;7.924;2023-02-01T19:01:22;15.57;;;4.55;;
42614;SDS011;28754;47.700;7.924;2023-02-01T19:04:09;17.60;;;3.85;;
42614;SDS011;28754;47.700;7.924;2023-02-01T19:06:56;14.88;;;4.00;;